Time;durP1;ratioP1;P1;durP2;ratioP2;P2;SDS_P1;SDS_P2;PMS_P1;PMS_P2;Temp;Humidity;BMP_temperature;BMP_pressure;BME280_temperature;BME280_humidity;BME280_pressure;Samples;Min_cycle;Max_cycle;Signal;HPM_P1;HPM_P2
2023/05/12 00:00:29;;;;;;;6.78;3.80;;;;;;;13.23;44.27;98574.00;5074153;28;20464;-75
2023/05/12 00:02:55;;;;;;;6.07;3.63;;;;;;;13.18;43.89;98572.16;5074056;28;20067;-75
2023/05/12 00:05:20;;;;;;;7.65;4.15;;;;;;;13.17;44.34;98570.53;5074206;28;20035;-75
2023/05/12 00:07:46;;;;;;;6.70;4.07;;;;;;;13.15;44.33;98578.28;5074179;28;20032;-74
2023/05/12 00:10:11;;;;;;;6.93;4.03;;;;;;;13.12;44.27;98576.16;5072810;28;20797;-75
2023/05/12 00:12:37;;;;;;;5.82;3.83;;;;;;;13.10;44.01;98579.22;5074091;28;20073;-75
2023/05/12 00:15:02;;;;;;;6.03;4.07;;;;;;;13.09;44.23;98583.09;5073978;28;20138;-75
2023/05/12 00:17:27;;;;;;;6.70;4.40;;;;;;;13.07;44.47;98579.84;5073942;28;20028;-75
2023/05/12 00:19:53;;;;;;;7.18;4.20;;;;;;;13.05;44.34;98570.25;5047515;28;20031;-74
2023/05/12 00:22:18;;;;;;;7.72;4.32;;;;;;;13.01;44.28;98577.53;4971500;28;20045;-78
2023/05/12 00:24:44;;;;;;;6.65;4.05;;;;;;;12.97;44.69;98582.03;4972242;28;20465;-78
2023/05/12 00:27:09;;;;;;;7.60;4.22;;;;;;;12.94;44.06;98583.44;4972144;28;20753;-78
2023/05/12 00:29:35;;;;;;;8.75;4.78;;;;;;;12.91;44.79;98578.53;4971912;28;20034;-77
2023/05/12 00:32:01;;;;;;;8.23;4.63;;;;;;;12.90;44.46;98582.41;4972269;28;20027;-77
2023/05/12 00:34:27;;;;;;;6.70;4.18;;;;;;;12.89;44.83;98578.03;4971838;28;20397;-78
2023/05/12 00:36:52;;;;;;;11.10;4.65;;;;;;;12.85;44.75;98585.28;5066681;28;20462;-78
2023/05/12 00:39:18;;;;;;;6.57;4.32;;;;;;;12.81;44.60;98582.34;5073439;28;20038;-77
2023/05/12 00:41:43;;;;;;;8.27;4.57;;;;;;;12.77;44.75;98576.66;5073348;28;20120;-77
2023/05/12 00:44:08;;;;;;;9.32;4.65;;;;;;;12.75;44.59;98580.81;5073298;28;20032;-78
2023/05/12 00:46:34;;;;;;;8.60;4.63;;;;;;;12.72;44.97;98578.69;5073409;28;20024;-77
2023/05/12 00:49:00;;;;;;;6.72;4.30;;;;;;;12.69;45.28;98584.78;5073563;28;20405;-77
2023/05/12 00:51:26;;;;;;;7.07;4.50;;;;;;;12.66;44.94;98589.00;5073152;28;20104;-77
2023/05/12 00:53:52;;;;;;;10.15;5.03;;;;;;;12.62;45.20;98579.72;5072190;28;20032;-78
2023/05/12 00:56:18;;;;;;;8.32;4.88;;;;;;;12.60;44.98;98587.47;5072922;28;20032;-78
2023/05/12 00:58:44;;;;;;;7.70;4.72;;;;;;;12.59;45.52;98580.31;5073290;28;20032;-77
2023/05/12 01:01:10;;;;;;;7.80;4.90;;;;;;;12.55;45.24;98584.81;5073067;28;20025;-78
2023/05/12 01:03:35;;;;;;;9.00;4.78;;;;;;;12.51;45.19;98581.88;5073252;28;20024;-77
2023/05/12 01:06:20;;;;;;;6.55;4.45;;;;;;;12.50;45.36;98583.00;5073090;28;20040;-77
2023/05/12 01:08:46;;;;;;;7.97;4.90;;;;;;;12.48;45.47;98582.47;5073002;28;20029;-78
2023/05/12 01:11:12;;;;;;;9.57;5.00;;;;;;;12.44;45.05;98582.25;5072651;28;20032;-77
2023/05/12 01:13:38;;;;;;;6.65;4.70;;;;;;;12.41;45.26;98580.16;5072821;28;20055;-77
2023/05/12 01:16:06;;;;;;;8.57;4.40;;;;;;;12.37;45.03;98581.88;5072818;28;20036;-77
2023/05/12 01:18:34;;;;;;;9.40;4.38;;;;;;;12.33;45.49;98580.84;5073180;28;20074;-77
2023/05/12 01:21:01;;;;;;;5.18;4.30;;;;;;;12.29;45.42;98588.06;5072321;28;20031;-77
2023/05/12 01:23:35;;;;;;;10.35;4.38;;;;;;;12.25;45.19;98584.31;5072577;28;20025;-77
2023/05/12 01:26:08;;;;;;;6.20;4.40;;;;;;;12.20;45.54;98590.72;5072439;28;20035;-77
2023/05/12 01:28:37;;;;;;;6.78;4.22;;;;;;;12.17;45.68;98580.31;5072875;28;20024;-78
2023/05/12 01:31:02;;;;;;;6.73;4.50;;;;;;;12.14;46.12;98587.22;5072494;28;20039;-78
2023/05/12 01:33:28;;;;;;;6.82;4.35;;;;;;;12.11;45.60;98589.78;5072382;28;20351;-78
2023/05/12 01:35:53;;;;;;;7.20;4.72;;;;;;;12.07;45.49;98589.56;5072435;28;20052;-78
2023/05/12 01:38:19;;;;;;;8.65;4.53;;;;;;;12.03;45.92;98585.78;5072421;28;20048;-78
2023/05/12 01:40:44;;;;;;;6.88;4.60;;;;;;;11.99;45.71;98587.50;5072220;28;20028;-78
2023/05/12 01:43:09;;;;;;;7.00;4.90;;;;;;;11.96;46.39;98591.66;5072275;28;20036;-78
2023/05/12 01:45:35;;;;;;;7.80;5.10;;;;;;;11.90;46.37;98596.44;5072327;28;20122;-78
2023/05/12 01:48:00;;;;;;;7.25;4.28;;;;;;;11.86;45.90;98600.06;5072263;28;20035;-77
2023/05/12 01:50:26;;;;;;;7.00;4.70;;;;;;;11.83;45.75;98596.00;5072317;28;20031;-77
2023/05/12 01:52:51;;;;;;;7.30;4.32;;;;;;;11.79;46.18;98600.47;5072244;28;20029;-77
2023/05/12 01:55:17;;;;;;;6.28;4.55;;;;;;;11.76;46.40;98601.06;5072248;28;20489;-77
2023/05/12 01:57:42;;;;;;;7.53;4.45;;;;;;;11.72;46.47;98598.13;5071916;28;20104;-77
2023/05/12 02:00:08;;;;;;;7.20;4.47;;;;;;;11.70;46.20;98611.34;5072153;28;20048;-77
2023/05/12 02:02:33;;;;;;;7.50;4.70;;;;;;;11.67;46.57;98602.84;5072148;28;20028;-77
2023/05/12 02:04:59;;;;;;;8.45;4.63;;;;;;;11.64;46.42;98601.53;5072392;28;20020;-77
2023/05/12 02:07:24;;;;;;;9.38;4.93;;;;;;;11.63;46.63;98610.91;5072226;28;20517;-77
2023/05/12 02:09:49;;;;;;;5.22;4.32;;;;;;;11.61;46.69;98615.88;5072031;28;20086;-76
2023/05/12 02:12:15;;;;;;;9.80;4.90;;;;;;;11.59;46.75;98610.69;5071883;28;20039;-78
2023/05/12 02:14:40;;;;;;;8.70;5.28;;;;;;;11.59;46.61;98610.69;5071769;28;20048;-78
2023/05/12 02:17:06;;;;;;;7.15;5.32;;;;;;;11.59;47.05;98599.72;5071992;28;20031;-77
2023/05/12 02:19:31;;;;;;;7.15;4.93;;;;;;;11.58;46.91;98605.47;5071897;28;20024;-77
2023/05/12 02:21:57;;;;;;;6.63;4.95;;;;;;;11.56;46.69;98603.06;5071892;28;20033;-77
2023/05/12 02:24:22;;;;;;;7.95;5.28;;;;;;;11.53;46.98;98603.66;5071998;28;20033;-77
2023/05/12 02:26:47;;;;;;;7.95;5.13;;;;;;;11.50;46.60;98604.25;5071980;28;20486;-78
2023/05/12 02:29:13;;;;;;;10.95;5.68;;;;;;;11.47;47.28;98604.84;5071633;28;20394;-77
2023/05/12 02:31:38;;;;;;;9.45;6.15;;;;;;;11.43;47.31;98610.09;5071768;28;20028;-77
2023/05/12 02:34:04;;;;;;;11.18;6.60;;;;;;;11.39;47.25;98608.25;5074634;28;20020;-77
2023/05/12 02:36:29;;;;;;;9.45;6.10;;;;;;;11.34;47.15;98611.06;5075831;28;20024;-77
2023/05/12 02:38:54;;;;;;;9.50;5.40;;;;;;;11.27;47.15;98606.75;5076121;28;20107;-77
2023/05/12 02:41:20;;;;;;;8.57;5.43;;;;;;;11.22;47.09;98612.31;5075973;28;20028;-78
2023/05/12 02:43:45;;;;;;;7.45;5.13;;;;;;;11.17;47.10;98607.72;5075684;28;20103;-78
2023/05/12 02:46:10;;;;;;;9.20;6.05;;;;;;;11.09;47.58;98608.41;5075752;28;20118;-76
2023/05/12 02:48:36;;;;;;;9.75;6.10;;;;;;;11.06;47.29;98608.97;5075951;28;20428;-78
2023/05/12 02:51:01;;;;;;;10.27;6.65;;;;;;;11.00;47.64;98611.00;5022662;28;20046;-77
2023/05/12 02:53:27;;;;;;;13.00;6.25;;;;;;;10.94;47.68;98614.91;4973312;28;20059;-78
2023/05/12 02:55:52;;;;;;;10.93;6.38;;;;;;;10.89;47.33;98609.50;4973452;28;20035;-77
2023/05/12 02:58:18;;;;;;;11.35;6.95;;;;;;;10.82;47.34;98612.59;4973318;28;20049;-77
2023/05/12 03:00:43;;;;;;;10.70;6.60;;;;;;;10.77;47.89;98607.19;5000802;28;20478;-77
2023/05/12 03:03:09;;;;;;;13.57;6.57;;;;;;;10.72;47.75;98610.81;5075347;28;20032;-78
2023/05/12 03:05:34;;;;;;;13.85;6.40;;;;;;;10.66;47.69;98605.66;5075224;28;20035;-78
2023/05/12 03:08:00;;;;;;;9.35;6.63;;;;;;;10.62;48.13;98613.69;5075232;28;20024;-77
2023/05/12 03:10:25;;;;;;;9.90;6.13;;;;;;;10.58;48.27;98609.88;5075170;28;20111;-78
2023/05/12 03:12:51;;;;;;;11.93;6.20;;;;;;;10.55;48.34;98615.94;5075189;28;20500;-77
2023/05/12 03:15:16;;;;;;;11.35;6.88;;;;;;;10.49;48.04;98606.16;5075023;28;20020;-77
2023/05/12 03:17:42;;;;;;;12.40;7.03;;;;;;;10.45;48.21;98608.66;5074926;28;20063;-78
2023/05/12 03:20:07;;;;;;;11.45;7.05;;;;;;;10.41;48.78;98610.34;5056978;28;20107;-77
2023/05/12 03:22:33;;;;;;;15.95;7.75;;;;;;;10.40;48.25;98608.72;5074910;28;20107;-78
2023/05/12 03:24:58;;;;;;;12.20;6.80;;;;;;;10.36;48.54;98607.63;5075087;28;20429;-77
2023/05/12 03:27:24;;;;;;;11.93;6.82;;;;;;;10.35;48.95;98603.25;5074877;28;20064;-77
2023/05/12 03:29:49;;;;;;;10.45;6.47;;;;;;;10.31;48.65;98608.50;5074863;28;20029;-77
2023/05/12 03:32:15;;;;;;;11.95;7.03;;;;;;;10.30;48.62;98606.06;5075086;28;20083;-77
2023/05/12 03:34:40;;;;;;;10.45;6.60;;;;;;;10.28;48.42;98609.91;5075014;28;20029;-78
2023/05/12 03:37:06;;;;;;;11.82;6.63;;;;;;;10.26;48.31;98611.31;5074594;28;20025;-78
2023/05/12 03:39:31;;;;;;;9.25;6.10;;;;;;;10.24;48.91;98611.59;5074567;28;20028;-77
2023/05/12 03:41:57;;;;;;;10.82;6.45;;;;;;;10.21;49.16;98606.69;5074740;28;20029;-76
2023/05/12 03:44:22;;;;;;;13.07;6.57;;;;;;;10.22;49.60;98604.78;5074638;28;20047;-77
2023/05/12 03:46:47;;;;;;;10.82;5.80;;;;;;;10.20;48.75;98612.47;5074483;28;20028;-78
2023/05/12 03:49:13;;;;;;;12.77;6.43;;;;;;;10.20;49.18;98618.75;5074467;28;20035;-77
2023/05/12 03:51:38;;;;;;;15.18;6.70;;;;;;;10.19;49.61;98621.78;5074461;28;20032;-77
2023/05/12 03:54:04;;;;;;;10.82;6.07;;;;;;;10.16;49.53;98619.63;5074264;28;20024;-77
2023/05/12 03:56:29;;;;;;;12.77;6.10;;;;;;;10.16;49.99;98619.63;5074280;28;20116;-77
2023/05/12 03:58:55;;;;;;;8.75;5.40;;;;;;;10.15;49.66;98620.75;5074332;28;20047;-78
2023/05/12 04:01:21;;;;;;;8.65;5.60;;;;;;;10.18;49.89;98625.63;5074215;28;20466;-78
2023/05/12 04:03:47;;;;;;;8.88;6.00;;;;;;;10.19;49.87;98635.50;5074125;28;20034;-77
2023/05/12 04:06:13;;;;;;;8.30;5.43;;;;;;;10.20;49.71;98628.91;5049815;28;20050;-77
2023/05/12 04:08:38;;;;;;;9.80;5.45;;;;;;;10.24;49.77;98640.94;4972075;28;20070;-77
2023/05/12 04:11:04;;;;;;;9.95;5.47;;;;;;;10.27;49.90;98635.69;4972260;28;20118;-77
2023/05/12 04:13:32;;;;;;;10.63;5.75;;;;;;;10.33;50.27;98638.38;4972352;28;20093;-77
2023/05/12 04:15:58;;;;;;;10.82;6.40;;;;;;;10.36;50.48;98627.66;4972197;28;20035;-77
2023/05/12 04:18:25;;;;;;;10.27;6.40;;;;;;;10.41;50.78;98629.53;4972531;28;20027;-77
2023/05/12 04:20:50;;;;;;;10.20;5.78;;;;;;;10.45;50.26;98629.78;4972057;28;20117;-77
2023/05/12 04:23:16;;;;;;;10.18;6.68;;;;;;;10.51;50.59;98631.34;4972076;28;20114;-77
2023/05/12 04:25:41;;;;;;;13.82;7.30;;;;;;;10.54;49.94;98639.81;4975198;28;20033;-77
2023/05/12 04:28:07;;;;;;;9.48;5.72;;;;;;;10.57;50.78;98632.94;5073943;28;20398;-77
2023/05/12 04:30:33;;;;;;;9.93;5.70;;;;;;;10.61;50.81;98635.88;5073855;28;20432;-78
2023/05/12 04:32:58;;;;;;;10.40;5.55;;;;;;;10.62;50.99;98630.13;5074001;28;20028;-77
2023/05/12 04:35:24;;;;;;;8.73;5.22;;;;;;;10.65;50.35;98629.56;5073563;28;20471;-77
2023/05/12 04:37:49;;;;;;;8.18;5.80;;;;;;;10.68;50.58;98628.13;5073463;28;20036;-77
2023/05/12 04:40:15;;;;;;;8.32;4.70;;;;;;;10.69;50.89;98636.09;5073800;28;20154;-77
2023/05/12 04:42:40;;;;;;;10.40;5.03;;;;;;;10.72;50.31;98637.41;5073214;28;20493;-77
2023/05/12 04:45:06;;;;;;;9.13;5.35;;;;;;;10.75;50.63;98639.56;5073580;28;20028;-77
2023/05/12 04:47:32;;;;;;;11.10;5.50;;;;;;;10.79;51.27;98635.13;5073404;28;20024;-77
2023/05/12 04:49:57;;;;;;;9.30;5.15;;;;;;;10.84;51.43;98640.56;5073321;28;20028;-77
2023/05/12 04:52:23;;;;;;;10.40;5.10;;;;;;;10.89;50.79;98636.94;5073397;28;20030;-78
2023/05/12 04:54:49;;;;;;;8.07;5.43;;;;;;;10.92;51.01;98639.09;5073467;28;20028;-78
2023/05/12 04:57:14;;;;;;;6.57;4.90;;;;;;;10.98;51.06;98623.38;5072305;28;20035;-77
2023/05/12 04:59:41;;;;;;;7.18;4.68;;;;;;;11.01;51.39;98634.59;5073363;28;20041;-78
2023/05/12 05:02:07;;;;;;;8.00;5.25;;;;;;;11.05;50.93;98642.22;5073202;28;20028;-77
2023/05/12 05:04:33;;;;;;;7.40;4.90;;;;;;;11.09;51.05;98640.53;5072895;28;20029;-77
2023/05/12 05:06:58;;;;;;;7.63;5.18;;;;;;;11.13;51.13;98638.84;5055185;28;20394;-77
2023/05/12 05:09:23;;;;;;;8.68;5.22;;;;;;;11.20;51.15;98638.47;5073290;28;20116;-78
2023/05/12 05:11:49;;;;;;;9.13;5.40;;;;;;;11.25;51.31;98636.44;5072979;28;20051;-77
2023/05/12 05:14:14;;;;;;;7.80;5.22;;;;;;;11.30;51.56;98641.06;4972176;28;20517;-77
2023/05/12 05:16:40;;;;;;;9.40;5.32;;;;;;;11.37;51.24;98638.78;4971489;28;20031;-77
2023/05/12 05:19:05;;;;;;;7.47;5.18;;;;;;;11.43;51.30;98643.03;4971674;28;20041;-77
2023/05/12 05:21:31;;;;;;;12.38;5.97;;;;;;;11.52;51.15;98637.72;4971229;28;20015;-77
2023/05/12 05:23:57;;;;;;;10.45;5.60;;;;;;;11.58;51.60;98631.03;4971442;28;20049;-76
2023/05/12 05:26:22;;;;;;;9.85;5.53;;;;;;;11.66;51.26;98642.44;4971181;28;20035;-77
2023/05/12 05:28:47;;;;;;;9.85;5.97;;;;;;;11.71;51.41;98632.19;4970629;28;20093;-78
2023/05/12 05:31:16;;;;;;;10.60;6.00;;;;;;;11.79;51.52;98638.13;4971612;28;20023;-73
2023/05/12 05:33:43;;;;;;;10.43;6.28;;;;;;;11.84;51.79;98643.53;4971675;28;20436;-73
2023/05/12 05:36:09;;;;;;;10.68;5.90;;;;;;;11.90;51.67;98645.06;4970793;28;20043;-74
2023/05/12 05:38:35;;;;;;;10.15;6.03;;;;;;;11.97;51.35;98636.47;4971145;28;20053;-72
2023/05/12 05:41:00;;;;;;;8.23;5.50;;;;;;;12.03;50.97;98643.50;4972542;28;20469;-72
2023/05/12 05:43:26;;;;;;;8.45;5.35;;;;;;;12.09;51.22;98639.56;5015811;28;20120;-72
2023/05/12 05:45:51;;;;;;;9.35;5.68;;;;;;;12.18;51.62;98642.44;4983479;28;20391;-72
2023/05/12 05:48:17;;;;;;;10.30;5.88;;;;;;;12.25;50.94;98633.78;4974212;28;20098;-70
2023/05/12 05:50:43;;;;;;;10.45;5.50;;;;;;;12.31;51.64;98640.84;4970195;28;20106;-70
2023/05/12 05:53:08;;;;;;;8.23;5.30;;;;;;;12.37;51.06;98639.63;4968502;28;20027;-71
2023/05/12 05:55:34;;;;;;;10.30;5.38;;;;;;;12.44;51.32;98639.22;4968837;28;20495;-72
2023/05/12 05:57:59;;;;;;;8.45;5.30;;;;;;;12.49;50.88;98639.94;4972400;28;20050;-71
2023/05/12 06:00:25;;;;;;;10.95;5.28;;;;;;;12.57;50.74;98645.84;4969521;28;20477;-71
2023/05/12 06:02:51;;;;;;;12.85;5.22;;;;;;;12.63;50.77;98644.63;4969201;28;20046;-70
2023/05/12 06:05:16;;;;;;;9.07;5.22;;;;;;;12.69;51.06;98643.41;4936638;28;20076;-70
2023/05/12 06:07:42;;;;;;;9.50;5.22;;;;;;;12.74;50.72;98654.31;4969282;28;20073;-71
2023/05/12 06:10:07;;;;;;;9.73;5.00;;;;;;;12.79;50.91;98651.47;4974498;28;20035;-72
2023/05/12 06:12:33;;;;;;;6.97;5.00;;;;;;;12.87;50.75;98649.09;4968540;28;20034;-74
2023/05/12 06:14:58;;;;;;;7.25;4.53;;;;;;;12.93;50.22;98656.13;4971010;28;20096;-72
2023/05/12 06:17:24;;;;;;;7.55;4.57;;;;;;;12.99;50.70;98654.91;4970125;28;20484;-71
2023/05/12 06:19:49;;;;;;;10.63;4.80;;;;;;;13.07;50.63;98658.88;4969130;28;20038;-71
2023/05/12 06:22:15;;;;;;;7.05;4.65;;;;;;;13.17;50.59;98655.09;4969209;28;20547;-73
2023/05/12 06:24:40;;;;;;;7.65;4.45;;;;;;;13.25;50.50;98657.09;4969304;28;20027;-71
2023/05/12 06:27:07;;;;;;;7.50;4.60;;;;;;;13.33;50.47;98650.88;4967693;28;20039;-73
2023/05/12 06:29:33;;;;;;;5.80;4.43;;;;;;;13.42;50.32;98651.00;4968727;28;20035;-70
2023/05/12 06:31:58;;;;;;;6.95;4.68;;;;;;;13.50;50.32;98657.69;4971687;28;20026;-77
2023/05/12 06:34:23;;;;;;;6.13;3.58;;;;;;;13.58;50.05;98656.97;4971235;28;20030;-75
2023/05/12 06:36:49;;;;;;;8.70;4.05;;;;;;;13.67;50.05;98660.59;4968902;28;20039;-75
2023/05/12 06:39:14;;;;;;;7.65;4.57;;;;;;;13.75;49.75;98647.19;4969140;28;20038;-74
2023/05/12 06:41:40;;;;;;;7.10;4.18;;;;;;;13.83;49.66;98652.78;4970925;28;20116;-75
2023/05/12 06:44:06;;;;;;;6.80;4.22;;;;;;;13.91;49.58;98648.47;4969374;28;20057;-75
2023/05/12 06:46:32;;;;;;;8.48;4.00;;;;;;;13.98;49.38;98648.84;4970477;28;20114;-76
2023/05/12 06:48:59;;;;;;;7.57;4.50;;;;;;;14.06;49.47;98649.22;4970882;28;20109;-75
2023/05/12 06:51:24;;;;;;;5.65;3.75;;;;;;;14.15;49.27;98655.56;4979955;28;20035;-76
2023/05/12 06:53:50;;;;;;;8.13;4.07;;;;;;;14.24;49.20;98644.59;4969202;28;20033;-75
2023/05/12 06:56:16;;;;;;;5.05;3.90;;;;;;;14.33;49.20;98650.97;4969543;28;20023;-74
2023/05/12 06:58:42;;;;;;;6.13;3.80;;;;;;;14.40;49.02;98637.53;4968861;28;20117;-74
2023/05/12 07:01:07;;;;;;;5.57;3.70;;;;;;;14.51;49.17;98651.06;4969684;28;20112;-76
2023/05/12 07:03:33;;;;;;;7.93;3.90;;;;;;;14.59;49.06;98648.34;4974485;28;20451;-74
2023/05/12 07:05:58;;;;;;;7.07;3.70;;;;;;;14.69;48.76;98647.25;4971852;28;20046;-74
2023/05/12 07:08:23;;;;;;;5.50;3.50;;;;;;;14.78;48.70;98644.53;4982266;28;20027;-73
2023/05/12 07:10:49;;;;;;;5.57;3.28;;;;;;;14.87;48.69;98650.91;4969256;28;20031;-73
2023/05/12 07:13:14;;;;;;;5.75;3.45;;;;;;;14.96;48.39;98647.34;4980262;28;20067;-72
2023/05/12 07:15:40;;;;;;;4.55;3.50;;;;;;;15.06;48.48;98640.72;4969553;28;20105;-74
2023/05/12 07:18:05;;;;;;;5.57;3.70;;;;;;;15.16;48.29;98644.00;4982191;28;20018;-75
2023/05/12 07:20:31;;;;;;;7.30;4.13;;;;;;;15.27;48.18;98643.69;4973410;28;20101;-78
2023/05/12 07:22:56;;;;;;;5.07;3.60;;;;;;;15.36;48.21;98638.97;4972439;28;20031;-75
2023/05/12 07:25:22;;;;;;;9.25;4.28;;;;;;;15.48;47.87;98638.34;4972292;28;20547;-75
2023/05/12 07:27:48;;;;;;;7.30;3.80;;;;;;;15.59;48.08;98636.88;4979943;28;20026;-74
2023/05/12 07:30:13;;;;;;;5.30;3.50;;;;;;;15.70;47.80;98631.00;4973903;28;20027;-73
2023/05/12 07:32:39;;;;;;;5.50;3.63;;;;;;;15.81;47.73;98637.84;4970834;28;20035;-76
2023/05/12 07:35:04;;;;;;;8.50;3.83;;;;;;;15.91;47.94;98634.75;4972420;28;20060;-74
2023/05/12 07:37:30;;;;;;;5.72;3.95;;;;;;;16.01;47.89;98635.56;4984266;28;20034;-73
2023/05/12 07:39:56;;;;;;;6.57;4.45;;;;;;;16.09;47.93;98634.72;4972909;28;20023;-75
2023/05/12 07:42:22;;;;;;;7.78;4.55;;;;;;;16.21;47.44;98645.94;4973510;28;20023;-76
2023/05/12 07:44:47;;;;;;;6.10;4.63;;;;;;;16.31;47.92;98644.78;4972386;28;20027;-74
2023/05/12 07:47:13;;;;;;;8.13;4.82;;;;;;;16.44;47.72;98636.59;4976757;28;20530;-74
2023/05/12 07:49:38;;;;;;;7.55;3.45;;;;;;;16.54;47.20;98643.72;4974325;28;20078;-76
2023/05/12 07:52:04;;;;;;;4.90;3.45;;;;;;;16.63;47.52;98636.19;4975377;28;20027;-77
2023/05/12 07:54:29;;;;;;;7.15;3.90;;;;;;;16.71;47.42;98638.09;4971784;28;20031;-76
2023/05/12 07:56:54;;;;;;;5.90;3.67;;;;;;;16.83;47.40;98642.94;4972210;28;20571;-75
2023/05/12 07:59:20;;;;;;;7.43;3.70;;;;;;;16.94;47.20;98646.16;4984473;28;20540;-77
2023/05/12 08:01:45;;;;;;;5.03;3.03;;;;;;;17.04;46.54;98644.97;4982418;28;20042;-76
2023/05/12 08:04:10;;;;;;;4.68;2.70;;;;;;;17.13;46.65;98645.75;4970294;28;20035;-75
2023/05/12 08:06:36;;;;;;;4.55;2.53;;;;;;;17.20;46.29;98637.72;4973537;28;20059;-75
2023/05/12 08:09:01;;;;;;;6.57;2.65;;;;;;;17.30;46.23;98633.72;4971562;28;20026;-76
2023/05/12 08:11:27;;;;;;;4.28;3.05;;;;;;;17.39;46.27;98637.25;4972559;28;20033;-76
2023/05/12 08:13:52;;;;;;;3.95;2.40;;;;;;;17.49;46.05;98635.22;4970418;28;20039;-72
2023/05/12 08:16:17;;;;;;;4.40;2.67;;;;;;;17.57;45.79;98642.66;4968765;28;20039;-71
2023/05/12 08:18:43;;;;;;;3.80;2.58;;;;;;;17.66;46.02;98645.38;4972971;28;20054;-72
2023/05/12 08:21:09;;;;;;;4.53;2.53;;;;;;;17.74;45.94;98640.88;4971315;28;20435;-72
2023/05/12 08:23:36;;;;;;;4.15;2.47;;;;;;;17.80;45.64;98643.09;4973998;28;20400;-71
2023/05/12 08:26:02;;;;;;;5.22;2.92;;;;;;;17.86;45.48;98638.97;4985549;28;20043;-71
2023/05/12 08:28:27;;;;;;;5.13;2.70;;;;;;;17.92;45.00;98656.25;4981746;28;20033;-73
2023/05/12 08:30:53;;;;;;;4.68;2.60;;;;;;;18.00;45.01;98649.00;4968602;28;20023;-72
2023/05/12 08:33:18;;;;;;;4.78;2.67;;;;;;;18.07;45.28;98654.81;4969111;28;20455;-71
2023/05/12 08:35:44;;;;;;;4.75;2.45;;;;;;;18.15;44.83;98648.34;4969969;28;20035;-72
2023/05/12 08:38:09;;;;;;;3.55;2.50;;;;;;;18.20;44.72;98650.13;4971011;28;20590;-72
2023/05/12 08:40:44;;;;;;;5.90;2.50;;;;;;;18.26;44.68;98648.75;4970353;28;20027;-71
2023/05/12 08:43:28;;;;;;;4.55;2.65;;;;;;;18.32;44.39;98646.53;4975752;28;20037;-73
2023/05/12 08:45:57;;;;;;;7.72;2.80;;;;;;;18.39;44.25;98649.56;4969604;28;20510;-72
2023/05/12 08:48:24;;;;;;;3.47;2.50;;;;;;;18.44;43.72;98649.38;4970077;28;20099;-70
2023/05/12 08:50:52;;;;;;;4.05;2.40;;;;;;;18.47;43.38;98645.06;4970233;28;20088;-71
2023/05/12 08:53:21;;;;;;;4.85;2.75;;;;;;;18.52;43.75;98644.06;4970151;28;20058;-71
2023/05/12 08:55:47;;;;;;;4.43;2.60;;;;;;;18.58;43.90;98653.75;4970190;28;20114;-73
2023/05/12 08:58:14;;;;;;;7.82;2.90;;;;;;;18.65;43.63;98644.88;4969970;28;20762;-71
2023/05/12 09:00:40;;;;;;;5.50;3.03;;;;;;;18.68;43.33;98656.09;4970324;28;20035;-72
2023/05/12 09:03:06;;;;;;;5.05;2.45;;;;;;;18.74;43.42;98651.94;4971137;28;20442;-72
2023/05/12 09:05:33;;;;;;;6.10;3.00;;;;;;;18.83;43.58;98651.81;4972054;28;20031;-73
2023/05/12 09:07:59;;;;;;;3.55;2.30;;;;;;;18.88;43.51;98637.69;4971562;28;20027;-71
2023/05/12 09:10:26;;;;;;;5.10;2.50;;;;;;;18.97;43.50;98650.69;4971980;28;20034;-72
2023/05/12 09:12:58;;;;;;;5.80;2.60;;;;;;;19.09;43.77;98641.53;4971667;28;20030;-71
2023/05/12 09:15:34;;;;;;;5.30;2.65;;;;;;;19.20;43.75;98645.47;4972256;28;20035;-72
2023/05/12 09:17:59;;;;;;;4.55;2.40;;;;;;;19.27;43.23;98650.44;4971736;28;20034;-71
2023/05/12 09:20:25;;;;;;;4.13;2.38;;;;;;;19.32;43.19;98659.38;4972193;28;20027;-71
2023/05/12 09:22:51;;;;;;;3.38;2.45;;;;;;;19.39;42.99;98646.81;4971667;28;20417;-72
2023/05/12 09:25:17;;;;;;;5.28;2.42;;;;;;;19.44;43.02;98646.56;4971618;28;20030;-71
2023/05/12 09:27:45;;;;;;;4.95;2.58;;;;;;;19.50;42.77;98645.16;4972063;28;20106;-70
2023/05/12 09:30:11;;;;;;;5.85;2.40;;;;;;;19.57;43.07;98645.38;4971819;28;20034;-72
2023/05/12 09:32:36;;;;;;;4.03;2.75;;;;;;;19.63;42.62;98640.38;4971649;28;20026;-72
2023/05/12 09:35:06;;;;;;;4.60;2.55;;;;;;;19.67;42.71;98638.50;4971463;28;20031;-71
2023/05/12 09:37:33;;;;;;;3.40;2.30;;;;;;;19.74;42.38;98643.50;4971754;28;20019;-72
2023/05/12 09:40:03;;;;;;;3.60;2.10;;;;;;;19.79;42.27;98638.47;4971421;28;20023;-73
2023/05/12 09:42:30;;;;;;;5.57;2.17;;;;;;;19.85;42.24;98639.03;4971205;28;20030;-72
2023/05/12 09:45:01;;;;;;;6.20;2.55;;;;;;;19.94;42.25;98647.28;4971370;28;20088;-71
2023/05/12 09:47:28;;;;;;;3.92;2.20;;;;;;;20.00;41.80;98639.47;4971703;28;20033;-72
2023/05/12 09:49:56;;;;;;;5.35;2.30;;;;;;;20.07;42.18;98642.44;4971438;28;20114;-73
2023/05/12 09:52:22;;;;;;;3.88;2.20;;;;;;;20.12;42.04;98639.41;4971709;28;20117;-73
2023/05/12 09:54:47;;;;;;;4.70;2.50;;;;;;;20.17;42.27;98632.75;4971213;28;20102;-72
2023/05/12 09:57:15;;;;;;;4.68;2.10;;;;;;;20.19;41.71;98639.59;4971338;28;20068;-73
2023/05/12 09:59:42;;;;;;;3.05;2.30;;;;;;;20.25;41.43;98651.28;4971325;28;20023;-73
2023/05/12 10:02:08;;;;;;;4.07;2.25;;;;;;;20.25;41.35;98631.78;4971229;28;20023;-73
2023/05/12 10:04:43;;;;;;;5.30;2.38;;;;;;;20.26;40.50;98638.97;4971025;28;20054;-74
2023/05/12 10:07:11;;;;;;;5.40;2.20;;;;;;;20.25;40.06;98628.19;4971183;28;20027;-73
2023/05/12 10:09:40;;;;;;;2.75;1.80;;;;;;;20.18;39.85;98628.81;4971365;28;20515;-73
2023/05/12 10:12:07;;;;;;;3.25;1.70;;;;;;;20.19;39.36;98631.22;4968788;28;20106;-73
2023/05/12 10:14:34;;;;;;;2.60;1.67;;;;;;;20.17;38.23;98639.16;4969461;28;20043;-72
2023/05/12 10:17:00;;;;;;;4.82;1.77;;;;;;;20.14;38.55;98634.31;4969893;28;20395;-71
2023/05/12 10:19:28;;;;;;;3.53;1.90;;;;;;;20.11;37.83;98625.84;4969604;28;20026;-71
2023/05/12 10:21:55;;;;;;;3.30;1.60;;;;;;;20.02;38.21;98626.00;4969340;28;20050;-72
2023/05/12 10:24:25;;;;;;;2.85;1.83;;;;;;;20.00;37.98;98631.13;4969537;28;20176;-72
2023/05/12 10:26:52;;;;;;;5.22;1.75;;;;;;;20.01;38.53;98619.59;4969662;28;20054;-72
2023/05/12 10:29:18;;;;;;;7.43;2.10;;;;;;;20.09;38.58;98623.41;4969704;28;20030;-72
2023/05/12 10:31:45;;;;;;;2.47;1.70;;;;;;;20.23;39.08;98618.22;4970174;28;20453;-71
2023/05/12 10:34:17;;;;;;;25.73;2.42;;;;;;;20.38;38.78;98624.16;4969348;28;20031;-72
2023/05/12 10:36:48;;;;;;;3.45;1.80;;;;;;;20.56;38.54;98621.84;4969822;28;20055;-72
2023/05/12 10:39:17;;;;;;;3.28;1.83;;;;;;;20.73;38.71;98617.88;4951993;28;20429;-72
2023/05/12 10:41:42;;;;;;;5.63;2.20;;;;;;;20.95;39.20;98616.44;4969554;28;20031;-72
2023/05/12 10:44:09;;;;;;;11.10;2.40;;;;;;;21.13;38.51;98627.22;4969476;28;20449;-72
2023/05/12 10:46:35;;;;;;;9.07;2.70;;;;;;;21.23;37.98;98628.63;4969618;28;20106;-72
2023/05/12 10:49:06;;;;;;;4.82;1.77;;;;;;;21.30;37.89;98630.75;4969372;28;20476;-72
2023/05/12 10:51:43;;;;;;;6.88;2.08;;;;;;;21.35;37.52;98628.50;4969778;28;20051;-72
2023/05/12 10:54:11;;;;;;;4.65;1.90;;;;;;;21.37;37.45;98620.59;4969830;28;20027;-72
2023/05/12 10:56:39;;;;;;;8.07;2.20;;;;;;;21.40;37.27;98628.19;4973038;28;20026;-72
2023/05/12 10:59:12;;;;;;;4.28;1.92;;;;;;;21.39;37.17;98625.78;4972503;28;20033;-72
2023/05/12 11:01:54;;;;;;;4.00;2.08;;;;;;;21.37;37.02;98626.16;4972731;28;20474;-73
2023/05/12 11:04:21;;;;;;;4.40;2.47;;;;;;;21.33;36.63;98627.25;4972489;28;20034;-71
2023/05/12 11:06:57;;;;;;;3.90;1.70;;;;;;;21.21;36.27;98637.34;4955096;28;20054;-72
2023/05/12 11:09:24;;;;;;;4.75;1.75;;;;;;;21.07;35.98;98632.25;4972592;28;20063;-72
2023/05/12 11:11:49;;;;;;;2.67;1.90;;;;;;;20.97;36.11;98628.03;4972705;28;20164;-72
2023/05/12 11:14:16;;;;;;;3.70;1.67;;;;;;;20.87;35.65;98628.59;4972430;28;20047;-73
2023/05/12 11:16:42;;;;;;;3.53;1.65;;;;;;;20.79;35.74;98637.94;4972781;28;20080;-72
2023/05/12 11:19:08;;;;;;;1.90;1.40;;;;;;;20.71;35.76;98636.94;4972133;28;20039;-72
2023/05/12 11:21:34;;;;;;;2.13;1.60;;;;;;;20.66;35.99;98640.81;4972455;28;20389;-72
2023/05/12 11:24:01;;;;;;;4.28;1.80;;;;;;;20.64;35.95;98639.53;4972301;28;20129;-71
2023/05/12 11:26:27;;;;;;;6.63;1.95;;;;;;;20.59;35.81;98642.59;4972133;28;20469;-71